sensor_id;sensor_type;location;lat;lon;timestamp;P1;durP1;ratioP1;P2;durP2;ratioP2
2956;SDS011;1488;51.548;7.222;2023-04-03T00:00:38;1.37;;;1.27;;
2956;SDS011;1488;51.548;7.222;2023-04-03T00:03:06;1.40;;;1.30;;
2956;SDS011;1488;51.548;7.222;2023-04-03T00:05:33;1.60;;;1.50;;
2956;SDS011;1488;51.548;7.222;2023-04-03T00:08:00;2.43;;;1.20;;
2956;SDS011;1488;51.548;7.222;2023-04-03T00:10:29;1.60;;;1.23;;
2956;SDS011;1488;51.548;7.222;2023-04-03T00:12:56;1.40;;;1.30;;
2956;SDS011;1488;51.548;7.222;2023-04-03T00:15:23;1.73;;;1.30;;
2956;SDS011;1488;51.548;7.222;2023-04-03T00:17:49;1.77;;;1.37;;
2956;SDS011;1488;51.548;7.222;2023-04-03T00:20:17;1.50;;;1.37;;
2956;SDS011;1488;51.548;7.222;2023-04-03T00:22:44;2.80;;;1.27;;
2956;SDS011;1488;51.548;7.222;2023-04-03T00:25:11;1.30;;;1.10;;
2956;SDS011;1488;51.548;7.222;2023-04-03T00:27:38;1.57;;;1.33;;
2956;SDS011;1488;51.548;7.222;2023-04-03T00:30:06;1.73;;;1.63;;
2956;SDS011;1488;51.548;7.222;2023-04-03T00:32:42;1.60;;;1.50;;
2956;SDS011;1488;51.548;7.222;2023-04-03T00:35:09;1.80;;;1.67;;
2956;SDS011;1488;51.548;7.222;2023-04-03T00:37:37;1.27;;;1.10;;
2956;SDS011;1488;51.548;7.222;2023-04-03T00:40:04;1.50;;;1.20;;
2956;SDS011;1488;51.548;7.222;2023-04-03T00:42:33;1.37;;;1.27;;
2956;SDS011;1488;51.548;7.222;2023-04-03T00:47:50;1.47;;;1.37;;
2956;SDS011;1488;51.548;7.222;2023-04-03T00:50:17;1.40;;;1.20;;
2956;SDS011;1488;51.548;7.222;2023-04-03T00:52:46;1.93;;;1.40;;
2956;SDS011;1488;51.548;7.222;2023-04-03T00:55:14;2.87;;;1.60;;
2956;SDS011;1488;51.548;7.222;2023-04-03T00:57:42;1.63;;;1.53;;
2956;SDS011;1488;51.548;7.222;2023-04-03T01:00:10;1.70;;;1.40;;
2956;SDS011;1488;51.548;7.222;2023-04-03T01:02:39;1.30;;;1.20;;
2956;SDS011;1488;51.548;7.222;2023-04-03T01:05:07;1.90;;;1.80;;
2956;SDS011;1488;51.548;7.222;2023-04-03T01:07:34;2.60;;;1.50;;
2956;SDS011;1488;51.548;7.222;2023-04-03T01:10:04;1.40;;;1.30;;
2956;SDS011;1488;51.548;7.222;2023-04-03T01:12:33;1.43;;;1.33;;
2956;SDS011;1488;51.548;7.222;2023-04-03T01:15:03;2.47;;;1.70;;
2956;SDS011;1488;51.548;7.222;2023-04-03T01:17:31;1.50;;;1.37;;
2956;SDS011;1488;51.548;7.222;2023-04-03T01:23:05;1.33;;;1.23;;
2956;SDS011;1488;51.548;7.222;2023-04-03T01:25:41;1.47;;;1.20;;
2956;SDS011;1488;51.548;7.222;2023-04-03T01:28:11;1.40;;;1.20;;
2956;SDS011;1488;51.548;7.222;2023-04-03T01:30:41;1.70;;;1.50;;
2956;SDS011;1488;51.548;7.222;2023-04-03T01:33:13;1.30;;;1.20;;
2956;SDS011;1488;51.548;7.222;2023-04-03T01:35:40;2.33;;;1.30;;
2956;SDS011;1488;51.548;7.222;2023-04-03T01:38:07;1.70;;;1.60;;
2956;SDS011;1488;51.548;7.222;2023-04-03T01:40:33;1.60;;;1.40;;
2956;SDS011;1488;51.548;7.222;2023-04-03T01:43:00;1.50;;;1.40;;
2956;SDS011;1488;51.548;7.222;2023-04-03T01:45:27;1.70;;;1.50;;
2956;SDS011;1488;51.548;7.222;2023-04-03T01:47:54;1.60;;;1.50;;
2956;SDS011;1488;51.548;7.222;2023-04-03T01:50:22;1.40;;;1.23;;
2956;SDS011;1488;51.548;7.222;2023-04-03T01:52:49;1.43;;;1.33;;
2956;SDS011;1488;51.548;7.222;2023-04-03T01:55:16;1.40;;;1.30;;
2956;SDS011;1488;51.548;7.222;2023-04-03T01:57:43;1.73;;;1.33;;
2956;SDS011;1488;51.548;7.222;2023-04-03T02:00:10;2.60;;;1.40;;
2956;SDS011;1488;51.548;7.222;2023-04-03T02:02:37;1.30;;;1.20;;
2956;SDS011;1488;51.548;7.222;2023-04-03T02:05:04;1.57;;;1.47;;
2956;SDS011;1488;51.548;7.222;2023-04-03T02:07:33;2.70;;;1.67;;
2956;SDS011;1488;51.548;7.222;2023-04-03T02:10:00;1.30;;;1.10;;
2956;SDS011;1488;51.548;7.222;2023-04-03T02:12:26;1.97;;;1.73;;
2956;SDS011;1488;51.548;7.222;2023-04-03T02:14:53;1.57;;;1.47;;
2956;SDS011;1488;51.548;7.222;2023-04-03T02:17:20;1.67;;;1.47;;
2956;SDS011;1488;51.548;7.222;2023-04-03T02:19:47;1.30;;;1.20;;
2956;SDS011;1488;51.548;7.222;2023-04-03T02:22:14;1.30;;;1.10;;
2956;SDS011;1488;51.548;7.222;2023-04-03T02:24:42;1.70;;;1.50;;
2956;SDS011;1488;51.548;7.222;2023-04-03T02:27:09;2.30;;;1.47;;
2956;SDS011;1488;51.548;7.222;2023-04-03T02:29:36;1.93;;;1.73;;
2956;SDS011;1488;51.548;7.222;2023-04-03T02:32:03;1.60;;;1.40;;
2956;SDS011;1488;51.548;7.222;2023-04-03T02:34:30;1.60;;;1.50;;
2956;SDS011;1488;51.548;7.222;2023-04-03T02:36:57;1.90;;;1.60;;
2956;SDS011;1488;51.548;7.222;2023-04-03T02:39:24;1.33;;;1.23;;
2956;SDS011;1488;51.548;7.222;2023-04-03T02:41:52;1.30;;;1.20;;
2956;SDS011;1488;51.548;7.222;2023-04-03T02:44:19;1.30;;;1.20;;
2956;SDS011;1488;51.548;7.222;2023-04-03T02:46:46;1.60;;;1.50;;
2956;SDS011;1488;51.548;7.222;2023-04-03T02:49:12;1.67;;;1.40;;
2956;SDS011;1488;51.548;7.222;2023-04-03T02:51:40;1.50;;;1.40;;
2956;SDS011;1488;51.548;7.222;2023-04-03T02:54:07;1.33;;;1.23;;
2956;SDS011;1488;51.548;7.222;2023-04-03T02:56:34;1.53;;;1.33;;
2956;SDS011;1488;51.548;7.222;2023-04-03T02:59:02;1.40;;;1.30;;
2956;SDS011;1488;51.548;7.222;2023-04-03T03:01:30;1.30;;;1.13;;
2956;SDS011;1488;51.548;7.222;2023-04-03T03:03:57;1.70;;;1.37;;
2956;SDS011;1488;51.548;7.222;2023-04-03T03:06:25;1.40;;;1.13;;
2956;SDS011;1488;51.548;7.222;2023-04-03T03:08:52;1.57;;;1.40;;
2956;SDS011;1488;51.548;7.222;2023-04-03T03:11:19;1.60;;;1.50;;
2956;SDS011;1488;51.548;7.222;2023-04-03T03:13:46;1.50;;;1.40;;
2956;SDS011;1488;51.548;7.222;2023-04-03T03:16:14;1.47;;;1.10;;
2956;SDS011;1488;51.548;7.222;2023-04-03T03:18:41;1.47;;;1.37;;
2956;SDS011;1488;51.548;7.222;2023-04-03T03:21:08;1.50;;;1.40;;
2956;SDS011;1488;51.548;7.222;2023-04-03T03:23:36;1.30;;;1.20;;
2956;SDS011;1488;51.548;7.222;2023-04-03T03:26:03;1.87;;;1.43;;
2956;SDS011;1488;51.548;7.222;2023-04-03T03:28:31;1.90;;;1.43;;
2956;SDS011;1488;51.548;7.222;2023-04-03T03:30:59;2.17;;;1.40;;
2956;SDS011;1488;51.548;7.222;2023-04-03T03:33:27;1.60;;;1.20;;
2956;SDS011;1488;51.548;7.222;2023-04-03T03:35:54;1.30;;;1.20;;
2956;SDS011;1488;51.548;7.222;2023-04-03T03:38:21;1.40;;;1.30;;
2956;SDS011;1488;51.548;7.222;2023-04-03T03:40:48;1.40;;;1.13;;
2956;SDS011;1488;51.548;7.222;2023-04-03T03:43:16;1.33;;;1.23;;
2956;SDS011;1488;51.548;7.222;2023-04-03T03:45:43;1.53;;;1.43;;
2956;SDS011;1488;51.548;7.222;2023-04-03T03:48:10;1.87;;;1.30;;
2956;SDS011;1488;51.548;7.222;2023-04-03T03:50:38;1.40;;;1.20;;
2956;SDS011;1488;51.548;7.222;2023-04-03T03:53:05;2.00;;;1.50;;
2956;SDS011;1488;51.548;7.222;2023-04-03T03:55:32;1.57;;;1.47;;
2956;SDS011;1488;51.548;7.222;2023-04-03T03:57:59;1.30;;;1.20;;
2956;SDS011;1488;51.548;7.222;2023-04-03T04:00:26;1.33;;;1.23;;
2956;SDS011;1488;51.548;7.222;2023-04-03T04:02:53;1.43;;;1.13;;
2956;SDS011;1488;51.548;7.222;2023-04-03T04:05:20;1.50;;;1.30;;
2956;SDS011;1488;51.548;7.222;2023-04-03T04:07:48;1.30;;;1.17;;
2956;SDS011;1488;51.548;7.222;2023-04-03T04:10:16;1.30;;;1.20;;
2956;SDS011;1488;51.548;7.222;2023-04-03T04:12:42;2.30;;;1.33;;
2956;SDS011;1488;51.548;7.222;2023-04-03T04:15:10;2.10;;;1.37;;
2956;SDS011;1488;51.548;7.222;2023-04-03T04:17:37;1.60;;;1.20;;
2956;SDS011;1488;51.548;7.222;2023-04-03T04:20:04;1.70;;;1.20;;
2956;SDS011;1488;51.548;7.222;2023-04-03T04:22:31;1.20;;;1.00;;
2956;SDS011;1488;51.548;7.222;2023-04-03T04:24:59;1.33;;;1.10;;
2956;SDS011;1488;51.548;7.222;2023-04-03T04:27:26;1.33;;;1.23;;
2956;SDS011;1488;51.548;7.222;2023-04-03T04:29:53;1.43;;;1.33;;
2956;SDS011;1488;51.548;7.222;2023-04-03T04:32:20;1.40;;;1.30;;
2956;SDS011;1488;51.548;7.222;2023-04-03T04:34:47;1.30;;;1.10;;
2956;SDS011;1488;51.548;7.222;2023-04-03T04:37:13;1.30;;;1.20;;
2956;SDS011;1488;51.548;7.222;2023-04-03T04:39:40;1.50;;;1.27;;
2956;SDS011;1488;51.548;7.222;2023-04-03T04:42:08;1.27;;;1.17;;
2956;SDS011;1488;51.548;7.222;2023-04-03T04:44:37;1.47;;;1.37;;
2956;SDS011;1488;51.548;7.222;2023-04-03T04:47:04;1.70;;;1.60;;
2956;SDS011;1488;51.548;7.222;2023-04-03T04:49:31;1.53;;;1.40;;
2956;SDS011;1488;51.548;7.222;2023-04-03T04:51:58;1.30;;;1.00;;
2956;SDS011;1488;51.548;7.222;2023-04-03T04:54:25;1.40;;;1.30;;
2956;SDS011;1488;51.548;7.222;2023-04-03T04:56:51;3.40;;;1.30;;
2956;SDS011;1488;51.548;7.222;2023-04-03T04:59:19;1.40;;;1.20;;
2956;SDS011;1488;51.548;7.222;2023-04-03T05:01:46;1.60;;;1.50;;
2956;SDS011;1488;51.548;7.222;2023-04-03T05:04:13;1.77;;;1.10;;
2956;SDS011;1488;51.548;7.222;2023-04-03T05:06:40;2.13;;;1.27;;
2956;SDS011;1488;51.548;7.222;2023-04-03T05:09:07;1.70;;;1.00;;
2956;SDS011;1488;51.548;7.222;2023-04-03T05:11:34;1.40;;;1.30;;
2956;SDS011;1488;51.548;7.222;2023-04-03T05:14:01;1.53;;;1.43;;
2956;SDS011;1488;51.548;7.222;2023-04-03T05:16:31;1.30;;;1.20;;
2956;SDS011;1488;51.548;7.222;2023-04-03T05:18:58;1.40;;;1.10;;
2956;SDS011;1488;51.548;7.222;2023-04-03T05:21:25;1.87;;;1.40;;
2956;SDS011;1488;51.548;7.222;2023-04-03T05:23:54;1.23;;;1.10;;
2956;SDS011;1488;51.548;7.222;2023-04-03T05:26:21;1.10;;;1.00;;
2956;SDS011;1488;51.548;7.222;2023-04-03T05:28:47;1.53;;;1.43;;
2956;SDS011;1488;51.548;7.222;2023-04-03T05:31:14;1.23;;;1.13;;
2956;SDS011;1488;51.548;7.222;2023-04-03T05:33:42;1.30;;;1.20;;
2956;SDS011;1488;51.548;7.222;2023-04-03T05:36:11;1.40;;;1.13;;
2956;SDS011;1488;51.548;7.222;2023-04-03T05:38:37;1.50;;;1.30;;
2956;SDS011;1488;51.548;7.222;2023-04-03T05:41:04;2.63;;;1.20;;
2956;SDS011;1488;51.548;7.222;2023-04-03T05:43:31;1.67;;;1.57;;
2956;SDS011;1488;51.548;7.222;2023-04-03T05:45:59;1.40;;;1.20;;
2956;SDS011;1488;51.548;7.222;2023-04-03T05:48:26;1.30;;;1.10;;
2956;SDS011;1488;51.548;7.222;2023-04-03T05:50:54;1.73;;;1.50;;
2956;SDS011;1488;51.548;7.222;2023-04-03T05:53:21;1.30;;;1.20;;
2956;SDS011;1488;51.548;7.222;2023-04-03T05:55:53;1.13;;;1.03;;
2956;SDS011;1488;51.548;7.222;2023-04-03T05:58:20;1.10;;;0.90;;
2956;SDS011;1488;51.548;7.222;2023-04-03T06:00:46;1.80;;;1.43;;
2956;SDS011;1488;51.548;7.222;2023-04-03T06:03:13;1.80;;;1.17;;
2956;SDS011;1488;51.548;7.222;2023-04-03T06:05:40;7.23;;;1.10;;
2956;SDS011;1488;51.548;7.222;2023-04-03T06:08:09;2.27;;;1.13;;
2956;SDS011;1488;51.548;7.222;2023-04-03T06:10:35;1.30;;;1.20;;
2956;SDS011;1488;51.548;7.222;2023-04-03T06:13:02;1.77;;;1.30;;
2956;SDS011;1488;51.548;7.222;2023-04-03T06:15:29;3.23;;;1.00;;
2956;SDS011;1488;51.548;7.222;2023-04-03T06:17:56;2.17;;;1.97;;
2956;SDS011;1488;51.548;7.222;2023-04-03T06:20:23;2.10;;;1.33;;
2956;SDS011;1488;51.548;7.222;2023-04-03T06:22:50;1.63;;;1.30;;
2956;SDS011;1488;51.548;7.222;2023-04-03T06:25:18;1.40;;;1.30;;
2956;SDS011;1488;51.548;7.222;2023-04-03T06:27:46;3.63;;;1.40;;
2956;SDS011;1488;51.548;7.222;2023-04-03T06:30:13;2.83;;;1.97;;
2956;SDS011;1488;51.548;7.222;2023-04-03T06:32:40;1.90;;;1.10;;
2956;SDS011;1488;51.548;7.222;2023-04-03T06:35:08;1.43;;;1.30;;
2956;SDS011;1488;51.548;7.222;2023-04-03T06:37:35;4.57;;;1.47;;
2956;SDS011;1488;51.548;7.222;2023-04-03T06:40:02;1.60;;;1.40;;
2956;SDS011;1488;51.548;7.222;2023-04-03T06:42:31;1.73;;;1.40;;
2956;SDS011;1488;51.548;7.222;2023-04-03T06:44:57;2.40;;;1.10;;
2956;SDS011;1488;51.548;7.222;2023-04-03T06:47:25;1.40;;;1.30;;
2956;SDS011;1488;51.548;7.222;2023-04-03T06:49:52;2.07;;;1.20;;
2956;SDS011;1488;51.548;7.222;2023-04-03T06:52:19;1.73;;;1.40;;
2956;SDS011;1488;51.548;7.222;2023-04-03T06:54:45;1.43;;;1.33;;
2956;SDS011;1488;51.548;7.222;2023-04-03T06:57:13;2.00;;;1.33;;
2956;SDS011;1488;51.548;7.222;2023-04-03T06:59:41;2.67;;;1.70;;
2956;SDS011;1488;51.548;7.222;2023-04-03T07:02:09;1.50;;;1.30;;
2956;SDS011;1488;51.548;7.222;2023-04-03T07:04:37;1.40;;;0.93;;
2956;SDS011;1488;51.548;7.222;2023-04-03T07:07:04;1.70;;;1.40;;
2956;SDS011;1488;51.548;7.222;2023-04-03T07:15:11;3.47;;;1.70;;
2956;SDS011;1488;51.548;7.222;2023-04-03T07:27:04;2.37;;;1.10;;
2956;SDS011;1488;51.548;7.222;2023-04-03T07:29:39;1.77;;;1.20;;
2956;SDS011;1488;51.548;7.222;2023-04-03T07:32:11;2.27;;;1.30;;
2956;SDS011;1488;51.548;7.222;2023-04-03T07:34:40;1.40;;;1.20;;
2956;SDS011;1488;51.548;7.222;2023-04-03T07:37:12;2.03;;;1.50;;
2956;SDS011;1488;51.548;7.222;2023-04-03T07:39:43;2.90;;;1.20;;
2956;SDS011;1488;51.548;7.222;2023-04-03T07:42:11;1.50;;;1.33;;
2956;SDS011;1488;51.548;7.222;2023-04-03T07:51:52;1.50;;;1.20;;
2956;SDS011;1488;51.548;7.222;2023-04-03T07:54:19;1.30;;;1.20;;
2956;SDS011;1488;51.548;7.222;2023-04-03T07:56:46;5.40;;;1.50;;
2956;SDS011;1488;51.548;7.222;2023-04-03T07:59:13;3.57;;;1.33;;
2956;SDS011;1488;51.548;7.222;2023-04-03T08:01:40;1.33;;;1.23;;
2956;SDS011;1488;51.548;7.222;2023-04-03T08:04:14;1.20;;;1.00;;
2956;SDS011;1488;51.548;7.222;2023-04-03T08:06:41;3.50;;;1.60;;
2956;SDS011;1488;51.548;7.222;2023-04-03T08:11:56;3.83;;;1.43;;
2956;SDS011;1488;51.548;7.222;2023-04-03T08:19:36;3.53;;;1.30;;
2956;SDS011;1488;51.548;7.222;2023-04-03T08:22:04;1.30;;;1.10;;
2956;SDS011;1488;51.548;7.222;2023-04-03T08:24:39;1.97;;;1.03;;
2956;SDS011;1488;51.548;7.222;2023-04-03T08:27:06;2.00;;;1.10;;
2956;SDS011;1488;51.548;7.222;2023-04-03T08:29:33;2.20;;;1.40;;
2956;SDS011;1488;51.548;7.222;2023-04-03T08:32:02;4.30;;;1.30;;
2956;SDS011;1488;51.548;7.222;2023-04-03T08:34:29;1.70;;;1.10;;
2956;SDS011;1488;51.548;7.222;2023-04-03T08:36:59;2.23;;;1.30;;
2956;SDS011;1488;51.548;7.222;2023-04-03T08:39:27;2.07;;;1.20;;
2956;SDS011;1488;51.548;7.222;2023-04-03T08:41:57;2.53;;;1.13;;
2956;SDS011;1488;51.548;7.222;2023-04-03T08:44:33;1.40;;;1.20;;
2956;SDS011;1488;51.548;7.222;2023-04-03T08:47:10;2.40;;;1.40;;
2956;SDS011;1488;51.548;7.222;2023-04-03T08:49:44;1.60;;;1.40;;
2956;SDS011;1488;51.548;7.222;2023-04-03T08:52:17;1.40;;;1.13;;
2956;SDS011;1488;51.548;7.222;2023-04-03T08:54:49;1.77;;;0.90;;
2956;SDS011;1488;51.548;7.222;2023-04-03T08:57:23;4.33;;;1.40;;
2956;SDS011;1488;51.548;7.222;2023-04-03T08:59:56;4.50;;;1.33;;
2956;SDS011;1488;51.548;7.222;2023-04-03T09:02:30;2.13;;;1.37;;
2956;SDS011;1488;51.548;7.222;2023-04-03T09:05:01;1.77;;;1.20;;
2956;SDS011;1488;51.548;7.222;2023-04-03T09:07:31;1.80;;;1.10;;
2956;SDS011;1488;51.548;7.222;2023-04-03T09:10:04;1.50;;;1.10;;
2956;SDS011;1488;51.548;7.222;2023-04-03T09:12:35;1.77;;;1.40;;
2956;SDS011;1488;51.548;7.222;2023-04-03T09:15:10;1.50;;;1.10;;
2956;SDS011;1488;51.548;7.222;2023-04-03T09:17:48;1.40;;;1.27;;
2956;SDS011;1488;51.548;7.222;2023-04-03T09:20:25;1.70;;;1.37;;
2956;SDS011;1488;51.548;7.222;2023-04-03T09:22:56;3.87;;;1.37;;
2956;SDS011;1488;51.548;7.222;2023-04-03T09:25:24;2.83;;;1.50;;
2956;SDS011;1488;51.548;7.222;2023-04-03T09:27:55;1.80;;;1.50;;
2956;SDS011;1488;51.548;7.222;2023-04-03T09:30:23;1.63;;;1.27;;
2956;SDS011;1488;51.548;7.222;2023-04-03T09:32:53;2.67;;;1.30;;
2956;SDS011;1488;51.548;7.222;2023-04-03T09:35:24;3.30;;;1.40;;
2956;SDS011;1488;51.548;7.222;2023-04-03T09:37:52;1.57;;;1.00;;
2956;SDS011;1488;51.548;7.222;2023-04-03T09:40:33;1.60;;;1.00;;
2956;SDS011;1488;51.548;7.222;2023-04-03T09:45:48;2.13;;;1.20;;
2956;SDS011;1488;51.548;7.222;2023-04-03T09:48:17;1.90;;;1.13;;
2956;SDS011;1488;51.548;7.222;2023-04-03T09:50:55;3.73;;;1.10;;
2956;SDS011;1488;51.548;7.222;2023-04-03T09:53:31;4.17;;;1.50;;
2956;SDS011;1488;51.548;7.222;2023-04-03T09:56:00;2.07;;;1.20;;
2956;SDS011;1488;51.548;7.222;2023-04-03T09:58:32;1.70;;;1.17;;
2956;SDS011;1488;51.548;7.222;2023-04-03T10:01:04;5.50;;;1.67;;
2956;SDS011;1488;51.548;7.222;2023-04-03T10:03:33;4.30;;;1.13;;
2956;SDS011;1488;51.548;7.222;2023-04-03T10:06:05;4.03;;;1.10;;
2956;SDS011;1488;51.548;7.222;2023-04-03T10:08:53;2.03;;;1.20;;
2956;SDS011;1488;51.548;7.222;2023-04-03T10:11:29;2.13;;;1.20;;
2956;SDS011;1488;51.548;7.222;2023-04-03T10:13:58;2.30;;;1.30;;
2956;SDS011;1488;51.548;7.222;2023-04-03T10:16:35;1.53;;;1.20;;
2956;SDS011;1488;51.548;7.222;2023-04-03T10:19:09;2.57;;;1.27;;
2956;SDS011;1488;51.548;7.222;2023-04-03T10:21:57;8.10;;;1.33;;
2956;SDS011;1488;51.548;7.222;2023-04-03T10:24:30;1.73;;;1.40;;
2956;SDS011;1488;51.548;7.222;2023-04-03T10:27:05;5.00;;;1.50;;
2956;SDS011;1488;51.548;7.222;2023-04-03T10:29:38;2.93;;;1.40;;
2956;SDS011;1488;51.548;7.222;2023-04-03T10:32:15;1.80;;;1.60;;
2956;SDS011;1488;51.548;7.222;2023-04-03T10:34:54;9.03;;;3.13;;
2956;SDS011;1488;51.548;7.222;2023-04-03T10:37:29;13.97;;;5.03;;
2956;SDS011;1488;51.548;7.222;2023-04-03T10:40:04;12.63;;;3.60;;
2956;SDS011;1488;51.548;7.222;2023-04-03T10:42:42;9.83;;;3.90;;
2956;SDS011;1488;51.548;7.222;2023-04-03T10:45:20;15.03;;;4.60;;
2956;SDS011;1488;51.548;7.222;2023-04-03T10:47:56;9.23;;;4.30;;
2956;SDS011;1488;51.548;7.222;2023-04-03T10:50:31;8.97;;;4.73;;
2956;SDS011;1488;51.548;7.222;2023-04-03T10:53:07;10.83;;;5.77;;
2956;SDS011;1488;51.548;7.222;2023-04-03T10:55:43;11.57;;;4.50;;
2956;SDS011;1488;51.548;7.222;2023-04-03T10:58:18;10.63;;;5.10;;
2956;SDS011;1488;51.548;7.222;2023-04-03T11:00:51;7.20;;;3.63;;
2956;SDS011;1488;51.548;7.222;2023-04-03T11:03:27;10.00;;;4.67;;
2956;SDS011;1488;51.548;7.222;2023-04-03T11:05:59;11.50;;;3.80;;
2956;SDS011;1488;51.548;7.222;2023-04-03T11:08:29;11.93;;;4.90;;
2956;SDS011;1488;51.548;7.222;2023-04-03T11:11:04;15.00;;;6.20;;
2956;SDS011;1488;51.548;7.222;2023-04-03T11:13:35;13.97;;;5.23;;
2956;SDS011;1488;51.548;7.222;2023-04-03T11:16:09;21.33;;;6.67;;
2956;SDS011;1488;51.548;7.222;2023-04-03T11:18:42;12.73;;;6.20;;
2956;SDS011;1488;51.548;7.222;2023-04-03T11:21:15;22.90;;;6.67;;
2956;SDS011;1488;51.548;7.222;2023-04-03T11:23:46;20.80;;;6.30;;
2956;SDS011;1488;51.548;7.222;2023-04-03T11:26:17;19.97;;;5.33;;
2956;SDS011;1488;51.548;7.222;2023-04-03T11:28:45;18.40;;;5.93;;
2956;SDS011;1488;51.548;7.222;2023-04-03T11:31:32;15.50;;;5.30;;
2956;SDS011;1488;51.548;7.222;2023-04-03T11:34:13;18.07;;;4.70;;
2956;SDS011;1488;51.548;7.222;2023-04-03T11:36:49;14.00;;;5.17;;
2956;SDS011;1488;51.548;7.222;2023-04-03T11:39:21;19.70;;;5.93;;
2956;SDS011;1488;51.548;7.222;2023-04-03T11:41:50;14.60;;;4.87;;
2956;SDS011;1488;51.548;7.222;2023-04-03T11:44:29;19.83;;;5.50;;
2956;SDS011;1488;51.548;7.222;2023-04-03T11:47:04;19.80;;;4.20;;
2956;SDS011;1488;51.548;7.222;2023-04-03T11:58:21;15.30;;;5.03;;
2956;SDS011;1488;51.548;7.222;2023-04-03T12:00:53;11.03;;;5.13;;
2956;SDS011;1488;51.548;7.222;2023-04-03T12:03:33;14.20;;;3.87;;
2956;SDS011;1488;51.548;7.222;2023-04-03T12:09:21;9.73;;;4.47;;
2956;SDS011;1488;51.548;7.222;2023-04-03T12:11:51;11.97;;;3.77;;
2956;SDS011;1488;51.548;7.222;2023-04-03T12:14:18;11.20;;;4.40;;
2956;SDS011;1488;51.548;7.222;2023-04-03T12:16:48;11.63;;;3.77;;
2956;SDS011;1488;51.548;7.222;2023-04-03T12:19:31;11.20;;;3.40;;
2956;SDS011;1488;51.548;7.222;2023-04-03T12:22:05;7.73;;;3.23;;
2956;SDS011;1488;51.548;7.222;2023-04-03T12:24:37;10.73;;;3.70;;
2956;SDS011;1488;51.548;7.222;2023-04-03T12:29:56;6.53;;;3.30;;
2956;SDS011;1488;51.548;7.222;2023-04-03T12:32:40;5.90;;;3.13;;
2956;SDS011;1488;51.548;7.222;2023-04-03T12:35:23;9.40;;;3.00;;
2956;SDS011;1488;51.548;7.222;2023-04-03T12:38:14;6.17;;;2.90;;
2956;SDS011;1488;51.548;7.222;2023-04-03T12:40:58;6.60;;;2.83;;
2956;SDS011;1488;51.548;7.222;2023-04-03T12:43:42;6.90;;;3.10;;
2956;SDS011;1488;51.548;7.222;2023-04-03T12:46:20;7.50;;;3.23;;
2956;SDS011;1488;51.548;7.222;2023-04-03T12:48:49;6.00;;;3.00;;
2956;SDS011;1488;51.548;7.222;2023-04-03T12:51:21;7.40;;;2.53;;
2956;SDS011;1488;51.548;7.222;2023-04-03T12:53:52;4.23;;;2.30;;
2956;SDS011;1488;51.548;7.222;2023-04-03T12:56:27;2.00;;;1.40;;
2956;SDS011;1488;51.548;7.222;2023-04-03T12:58:55;4.60;;;2.30;;
2956;SDS011;1488;51.548;7.222;2023-04-03T13:01:42;5.70;;;2.10;;
2956;SDS011;1488;51.548;7.222;2023-04-03T13:04:09;3.07;;;1.60;;
2956;SDS011;1488;51.548;7.222;2023-04-03T13:06:39;3.23;;;1.33;;
2956;SDS011;1488;51.548;7.222;2023-04-03T13:09:17;2.87;;;1.53;;
2956;SDS011;1488;51.548;7.222;2023-04-03T13:11:47;2.83;;;1.50;;
2956;SDS011;1488;51.548;7.222;2023-04-03T13:14:17;4.67;;;1.80;;
2956;SDS011;1488;51.548;7.222;2023-04-03T13:16:52;4.20;;;1.80;;
2956;SDS011;1488;51.548;7.222;2023-04-03T13:19:22;5.13;;;2.03;;
2956;SDS011;1488;51.548;7.222;2023-04-03T13:21:57;2.63;;;1.60;;
2956;SDS011;1488;51.548;7.222;2023-04-03T13:24:27;3.40;;;1.50;;
2956;SDS011;1488;51.548;7.222;2023-04-03T13:26:55;3.80;;;1.60;;
2956;SDS011;1488;51.548;7.222;2023-04-03T13:29:23;7.30;;;1.93;;
2956;SDS011;1488;51.548;7.222;2023-04-03T13:31:58;3.67;;;1.47;;
2956;SDS011;1488;51.548;7.222;2023-04-03T13:34:27;4.50;;;2.03;;
2956;SDS011;1488;51.548;7.222;2023-04-03T13:37:02;4.80;;;1.30;;
2956;SDS011;1488;51.548;7.222;2023-04-03T13:39:30;4.20;;;1.80;;
2956;SDS011;1488;51.548;7.222;2023-04-03T13:41:58;2.77;;;1.60;;
2956;SDS011;1488;51.548;7.222;2023-04-03T13:44:32;2.13;;;1.53;;
2956;SDS011;1488;51.548;7.222;2023-04-03T13:47:00;2.50;;;1.50;;
2956;SDS011;1488;51.548;7.222;2023-04-03T13:49:42;4.00;;;1.43;;
2956;SDS011;1488;51.548;7.222;2023-04-03T13:52:26;2.17;;;1.57;;
2956;SDS011;1488;51.548;7.222;2023-04-03T13:54:55;4.20;;;1.47;;
2956;SDS011;1488;51.548;7.222;2023-04-03T13:57:23;2.77;;;1.40;;
2956;SDS011;1488;51.548;7.222;2023-04-03T13:59:50;4.67;;;1.33;;
2956;SDS011;1488;51.548;7.222;2023-04-03T14:02:19;3.40;;;1.20;;
2956;SDS011;1488;51.548;7.222;2023-04-03T14:04:52;1.70;;;1.33;;
2956;SDS011;1488;51.548;7.222;2023-04-03T14:07:24;2.33;;;1.30;;
2956;SDS011;1488;51.548;7.222;2023-04-03T14:09:52;1.70;;;1.10;;
2956;SDS011;1488;51.548;7.222;2023-04-03T14:12:21;3.50;;;1.37;;
2956;SDS011;1488;51.548;7.222;2023-04-03T14:14:52;1.53;;;1.20;;
2956;SDS011;1488;51.548;7.222;2023-04-03T14:17:22;1.97;;;1.20;;
2956;SDS011;1488;51.548;7.222;2023-04-03T14:19:50;4.43;;;1.27;;
2956;SDS011;1488;51.548;7.222;2023-04-03T14:22:19;2.50;;;1.53;;
2956;SDS011;1488;51.548;7.222;2023-04-03T14:24:50;3.97;;;1.33;;
2956;SDS011;1488;51.548;7.222;2023-04-03T14:27:19;3.73;;;1.27;;
2956;SDS011;1488;51.548;7.222;2023-04-03T14:29:47;2.63;;;1.10;;
2956;SDS011;1488;51.548;7.222;2023-04-03T14:32:15;1.80;;;1.50;;
2956;SDS011;1488;51.548;7.222;2023-04-03T14:34:44;1.57;;;1.20;;
2956;SDS011;1488;51.548;7.222;2023-04-03T14:37:12;3.63;;;1.07;;
2956;SDS011;1488;51.548;7.222;2023-04-03T14:39:41;2.10;;;1.53;;
2956;SDS011;1488;51.548;7.222;2023-04-03T14:42:13;2.10;;;1.33;;
2956;SDS011;1488;51.548;7.222;2023-04-03T14:44:41;1.60;;;1.10;;
2956;SDS011;1488;51.548;7.222;2023-04-03T14:47:09;3.33;;;1.27;;
2956;SDS011;1488;51.548;7.222;2023-04-03T14:49:37;5.00;;;1.40;;
2956;SDS011;1488;51.548;7.222;2023-04-03T14:52:04;2.70;;;1.23;;
2956;SDS011;1488;51.548;7.222;2023-04-03T14:54:31;2.30;;;1.27;;
2956;SDS011;1488;51.548;7.222;2023-04-03T14:56:58;3.60;;;1.40;;
2956;SDS011;1488;51.548;7.222;2023-04-03T14:59:28;3.27;;;1.30;;
2956;SDS011;1488;51.548;7.222;2023-04-03T15:01:56;3.90;;;1.20;;
2956;SDS011;1488;51.548;7.222;2023-04-03T15:04:23;1.60;;;1.20;;
2956;SDS011;1488;51.548;7.222;2023-04-03T15:06:50;2.00;;;1.10;;
2956;SDS011;1488;51.548;7.222;2023-04-03T15:09:19;7.63;;;1.20;;
2956;SDS011;1488;51.548;7.222;2023-04-03T15:11:47;2.17;;;1.00;;
2956;SDS011;1488;51.548;7.222;2023-04-03T15:14:14;2.80;;;1.40;;
2956;SDS011;1488;51.548;7.222;2023-04-03T15:16:42;2.13;;;1.10;;
2956;SDS011;1488;51.548;7.222;2023-04-03T15:19:09;3.00;;;1.20;;
2956;SDS011;1488;51.548;7.222;2023-04-03T15:21:37;1.53;;;1.00;;
2956;SDS011;1488;51.548;7.222;2023-04-03T15:24:03;8.83;;;1.67;;
2956;SDS011;1488;51.548;7.222;2023-04-03T15:26:30;2.47;;;1.20;;
2956;SDS011;1488;51.548;7.222;2023-04-03T15:28:58;2.20;;;1.27;;
2956;SDS011;1488;51.548;7.222;2023-04-03T15:31:25;2.10;;;1.47;;
2956;SDS011;1488;51.548;7.222;2023-04-03T15:33:53;3.30;;;1.07;;
2956;SDS011;1488;51.548;7.222;2023-04-03T15:36:20;2.30;;;1.17;;
2956;SDS011;1488;51.548;7.222;2023-04-03T15:38:46;1.40;;;1.00;;
2956;SDS011;1488;51.548;7.222;2023-04-03T15:41:13;3.60;;;1.20;;
2956;SDS011;1488;51.548;7.222;2023-04-03T15:43:40;2.50;;;1.10;;
2956;SDS011;1488;51.548;7.222;2023-04-03T15:46:07;2.80;;;1.20;;
2956;SDS011;1488;51.548;7.222;2023-04-03T15:48:34;2.50;;;1.30;;
2956;SDS011;1488;51.548;7.222;2023-04-03T15:51:03;2.10;;;1.10;;
2956;SDS011;1488;51.548;7.222;2023-04-03T15:53:31;1.43;;;1.00;;
2956;SDS011;1488;51.548;7.222;2023-04-03T15:55:58;3.20;;;1.10;;
2956;SDS011;1488;51.548;7.222;2023-04-03T15:58:25;1.93;;;1.23;;
2956;SDS011;1488;51.548;7.222;2023-04-03T16:00:52;1.50;;;1.00;;
2956;SDS011;1488;51.548;7.222;2023-04-03T16:03:19;1.73;;;1.20;;
2956;SDS011;1488;51.548;7.222;2023-04-03T16:05:47;2.20;;;1.20;;
2956;SDS011;1488;51.548;7.222;2023-04-03T16:08:16;1.77;;;1.13;;
2956;SDS011;1488;51.548;7.222;2023-04-03T16:10:43;2.30;;;0.90;;
2956;SDS011;1488;51.548;7.222;2023-04-03T16:13:12;2.07;;;1.13;;
2956;SDS011;1488;51.548;7.222;2023-04-03T16:15:39;3.37;;;1.43;;
2956;SDS011;1488;51.548;7.222;2023-04-03T16:18:07;2.10;;;1.03;;
2956;SDS011;1488;51.548;7.222;2023-04-03T16:20:34;3.13;;;1.13;;
2956;SDS011;1488;51.548;7.222;2023-04-03T16:23:02;1.60;;;1.10;;